METAR Formatted Surface Weather Observation
Issued by NWS

Home | Current Version | Previous Version | Text Only | Print | Product List | Glossary On
Versions: 1 2
000
SAUS41 KAKQ 110241
MTRNFE
SPECI KNFE 110240Z AUTO 00000KT 10SM SCT010 BKN018 24/22 A3010 RMK
AO2 RAB27E37 P0000 T02390217



USA.gov is the U.S. government's official web portal to all federal, state and local government web resources and services.